createdAt,value
2023-05-05T00:01:33.323Z,2.40
2023-05-05T00:04:01.637Z,2.00
2023-05-05T00:06:29.349Z,1.90
2023-05-05T00:08:57.121Z,2.15
2023-05-05T00:11:26.125Z,2.60
2023-05-05T00:13:53.807Z,2.20
2023-05-05T00:16:23.344Z,2.15
2023-05-05T00:18:51.057Z,2.05
2023-05-05T00:21:19.826Z,2.08
2023-05-05T00:23:47.496Z,2.60
2023-05-05T00:26:15.426Z,2.28
2023-05-05T00:28:48.545Z,2.20
2023-05-05T00:31:16.956Z,2.20
2023-05-05T00:33:45.202Z,2.35
2023-05-05T00:36:14.828Z,2.20
2023-05-05T00:38:42.596Z,2.05
2023-05-05T00:41:10.333Z,2.08
2023-05-05T00:43:37.964Z,1.75
2023-05-05T00:46:27.500Z,1.77
2023-05-05T00:48:55.440Z,1.95
2023-05-05T00:51:24.569Z,2.45
2023-05-05T00:53:52.973Z,1.80
2023-05-05T00:56:22.170Z,2.10
2023-05-05T00:58:50.001Z,1.92
2023-05-05T01:01:17.777Z,2.60
2023-05-05T01:03:45.632Z,1.88
2023-05-05T01:06:32.021Z,1.90
2023-05-05T01:09:37.102Z,2.35
2023-05-05T01:12:31.459Z,1.90
2023-05-05T01:15:14.081Z,2.10
2023-05-05T01:18:04.169Z,2.00
2023-05-05T01:20:41.162Z,1.80
2023-05-05T01:23:12.534Z,2.28
2023-05-05T01:26:08.633Z,2.40
2023-05-05T01:29:26.758Z,2.40
2023-05-05T01:31:57.506Z,2.75
2023-05-05T01:34:32.007Z,2.47
2023-05-05T01:37:32.463Z,3.08
2023-05-05T01:40:06.345Z,2.22
2023-05-05T01:42:36.696Z,2.03
2023-05-05T01:45:06.700Z,2.20
2023-05-05T01:47:34.927Z,2.05
2023-05-05T01:50:04.208Z,2.42
2023-05-05T01:52:33.466Z,2.47
2023-05-05T01:55:02.989Z,2.60
2023-05-05T01:57:33.328Z,2.13
2023-05-05T02:00:03.777Z,2.40
2023-05-05T02:02:45.704Z,2.20
2023-05-05T02:05:15.334Z,1.95
2023-05-05T02:07:44.709Z,4.00
2023-05-05T02:10:14.018Z,2.33
2023-05-05T02:12:44.895Z,2.35
2023-05-05T02:15:14.691Z,2.35
2023-05-05T02:17:47.490Z,1.92
2023-05-05T02:20:19.162Z,2.53
2023-05-05T02:22:47.249Z,1.98
2023-05-05T02:25:17.846Z,2.67
2023-05-05T02:27:47.832Z,2.22
2023-05-05T02:30:19.503Z,2.10
2023-05-05T02:32:54.754Z,2.00
2023-05-05T02:35:29.064Z,2.35
2023-05-05T02:38:06.601Z,2.25
2023-05-05T02:40:43.362Z,2.35
2023-05-05T02:43:18.426Z,2.00
2023-05-05T02:45:47.352Z,2.35
2023-05-05T02:48:16.451Z,2.10
2023-05-05T02:50:44.368Z,2.47
2023-05-05T02:53:25.673Z,2.45
2023-05-05T02:55:57.537Z,1.80
2023-05-05T02:58:41.706Z,2.08
2023-05-05T03:01:29.791Z,2.58
2023-05-05T03:04:11.623Z,2.22
2023-05-05T03:06:48.895Z,2.10
2023-05-05T03:09:26.351Z,2.08
2023-05-05T03:14:37.235Z,2.28
2023-05-05T03:17:06.876Z,3.08
2023-05-05T03:19:37.097Z,2.38
2023-05-05T03:22:05.552Z,2.85
2023-05-05T03:24:35.010Z,3.55
2023-05-05T03:27:07.161Z,3.47
2023-05-05T03:29:38.511Z,2.78
2023-05-05T03:32:10.550Z,3.33
2023-05-05T03:34:39.011Z,3.28
2023-05-05T03:37:06.993Z,3.00
2023-05-05T03:39:35.046Z,3.22
2023-05-05T03:42:03.212Z,2.13
2023-05-05T03:44:33.572Z,2.65
2023-05-05T03:47:01.458Z,2.58
2023-05-05T03:49:31.414Z,2.50
2023-05-05T03:51:59.393Z,3.03
2023-05-05T03:54:27.158Z,2.33
2023-05-05T03:56:56.426Z,2.45
2023-05-05T03:59:24.097Z,2.58
2023-05-05T04:01:51.890Z,3.17
2023-05-05T04:04:20.817Z,2.53
2023-05-05T04:06:48.926Z,2.90
2023-05-05T04:09:16.646Z,2.65
2023-05-05T04:11:44.816Z,2.83
2023-05-05T04:14:12.608Z,3.20
2023-05-05T04:16:40.533Z,2.88
2023-05-05T04:19:08.391Z,2.50
2023-05-05T04:21:36.489Z,2.25
2023-05-05T04:24:05.022Z,2.92
2023-05-05T04:26:32.750Z,2.50
2023-05-05T04:29:00.435Z,2.72
2023-05-05T04:31:28.985Z,2.97
2023-05-05T04:33:56.787Z,2.72
2023-05-05T04:36:25.079Z,2.63
2023-05-05T04:38:52.902Z,2.78
2023-05-05T04:41:21.488Z,2.75
2023-05-05T04:43:49.703Z,3.63
2023-05-05T04:46:17.545Z,3.30
2023-05-05T04:48:45.852Z,3.20
2023-05-05T04:51:14.267Z,2.60
2023-05-05T04:53:42.125Z,2.80
2023-05-05T04:56:09.856Z,3.78
2023-05-05T04:58:37.676Z,3.40
2023-05-05T05:01:07.248Z,2.65
2023-05-05T05:03:36.734Z,3.42
2023-05-05T05:06:04.494Z,3.50
2023-05-05T05:08:32.180Z,2.70
2023-05-05T05:11:00.834Z,3.55
2023-05-05T05:13:28.671Z,3.10
2023-05-05T05:15:56.952Z,3.05
2023-05-05T05:18:24.651Z,3.35
2023-05-05T05:20:52.724Z,3.70
2023-05-05T05:23:21.005Z,2.72
2023-05-05T05:25:48.724Z,3.03
2023-05-05T05:28:19.960Z,3.40
2023-05-05T05:30:52.772Z,3.35
2023-05-05T05:33:20.886Z,3.38
2023-05-05T05:35:48.644Z,3.08
2023-05-05T05:38:18.040Z,3.33
2023-05-05T05:40:47.186Z,3.15
2023-05-05T05:43:15.441Z,2.78
2023-05-05T05:45:43.207Z,2.47
2023-05-05T05:48:11.183Z,2.60
2023-05-05T05:50:39.381Z,2.55
2023-05-05T05:53:07.191Z,2.17
2023-05-05T05:55:35.484Z,2.45
2023-05-05T05:58:03.355Z,2.35
2023-05-05T06:00:31.394Z,2.15
2023-05-05T06:03:05.638Z,1.85
2023-05-05T06:05:36.888Z,2.08
2023-05-05T06:08:05.013Z,1.90
2023-05-05T06:10:36.153Z,1.92
2023-05-05T06:13:08.981Z,1.85
2023-05-05T06:15:40.203Z,2.22
2023-05-05T06:18:11.846Z,2.47
2023-05-05T06:20:40.126Z,1.83
2023-05-05T06:23:07.935Z,1.63
2023-05-05T06:25:39.645Z,1.83
2023-05-05T06:28:07.327Z,2.13
2023-05-05T06:30:35.257Z,2.38
2023-05-05T06:33:03.014Z,1.58
2023-05-05T06:35:30.702Z,1.90
2023-05-05T06:37:58.452Z,1.70
2023-05-05T06:40:27.566Z,2.08
2023-05-05T06:42:55.278Z,1.83
2023-05-05T06:45:28.497Z,2.13
2023-05-05T06:47:57.241Z,2.08
2023-05-05T06:50:24.962Z,2.03
2023-05-05T06:52:53.307Z,1.35
2023-05-05T06:55:21.133Z,1.67
2023-05-05T06:57:48.891Z,1.85
2023-05-05T07:00:17.516Z,1.88
2023-05-05T07:02:45.360Z,1.58
2023-05-05T07:05:13.047Z,1.80
2023-05-05T07:07:59.561Z,1.45
2023-05-05T07:10:28.270Z,1.45
2023-05-05T07:12:56.078Z,2.03
2023-05-05T07:15:29.173Z,1.35
2023-05-05T07:17:58.492Z,1.30
2023-05-05T07:20:26.678Z,1.50
2023-05-05T07:22:54.566Z,1.17
2023-05-05T07:25:22.261Z,1.60
2023-05-05T07:27:50.467Z,1.45
2023-05-05T07:30:19.487Z,1.85
2023-05-05T07:32:49.241Z,1.50
2023-05-05T07:35:17.209Z,1.30
2023-05-05T07:37:46.082Z,1.30
2023-05-05T07:40:14.031Z,1.50
2023-05-05T07:42:44.969Z,1.30
2023-05-05T07:45:12.709Z,1.30
2023-05-05T07:47:40.863Z,1.65
2023-05-05T07:50:09.065Z,1.50
2023-05-05T07:52:45.161Z,1.30
2023-05-05T07:55:15.887Z,1.70
2023-05-05T07:57:43.625Z,1.38
2023-05-05T08:00:13.397Z,1.55
2023-05-05T08:02:41.645Z,1.35
2023-05-05T08:05:12.844Z,1.30
2023-05-05T08:07:41.631Z,1.77
2023-05-05T08:10:11.898Z,1.55
2023-05-05T08:12:40.673Z,1.60
2023-05-05T08:15:09.373Z,1.40
2023-05-05T08:17:48.838Z,1.42
2023-05-05T08:20:17.752Z,1.40
2023-05-05T08:22:46.104Z,1.20
2023-05-05T08:25:14.878Z,1.23
2023-05-05T08:27:43.456Z,1.35
2023-05-05T08:30:11.952Z,1.55
2023-05-05T08:32:39.901Z,1.30
2023-05-05T08:35:08.307Z,1.35
2023-05-05T08:37:36.428Z,1.23
2023-05-05T08:40:04.882Z,1.27
2023-05-05T08:42:38.684Z,1.20
2023-05-05T08:45:11.714Z,1.63
2023-05-05T08:47:39.820Z,1.13
2023-05-05T08:50:11.075Z,1.13
2023-05-05T08:52:43.998Z,1.30
2023-05-05T08:55:24.202Z,1.25
2023-05-05T08:57:54.572Z,1.10
2023-05-05T09:00:23.227Z,1.35
2023-05-05T09:02:51.571Z,0.90
2023-05-05T09:05:19.503Z,0.95
2023-05-05T09:07:47.588Z,1.05
2023-05-05T09:10:15.553Z,1.10
2023-05-05T09:12:44.161Z,0.98
2023-05-05T09:15:14.509Z,1.10
2023-05-05T09:17:42.845Z,1.20
2023-05-05T09:20:12.687Z,1.27
2023-05-05T09:22:48.209Z,1.00
2023-05-05T09:25:18.258Z,0.80
2023-05-05T09:27:48.581Z,0.73
2023-05-05T09:30:25.103Z,0.88
2023-05-05T09:32:55.004Z,1.00
2023-05-05T09:35:23.625Z,0.70
2023-05-05T09:37:51.333Z,0.77
2023-05-05T09:40:20.813Z,1.10
2023-05-05T09:42:48.939Z,0.73
2023-05-05T09:45:19.745Z,0.90
2023-05-05T09:47:48.697Z,0.80
2023-05-05T09:50:18.998Z,0.68
2023-05-05T09:53:00.749Z,0.70
2023-05-05T09:55:29.415Z,1.10
2023-05-05T09:57:57.340Z,1.52
2023-05-05T10:00:39.277Z,0.75
2023-05-05T10:03:07.208Z,0.82
2023-05-05T10:05:48.117Z,0.80
2023-05-05T10:08:16.433Z,1.10
2023-05-05T10:10:51.595Z,0.80
2023-05-05T10:13:21.428Z,0.63
2023-05-05T10:15:51.513Z,0.65
2023-05-05T10:18:27.107Z,0.60
2023-05-05T10:21:00.475Z,0.80
2023-05-05T10:23:45.896Z,0.57
2023-05-05T10:26:14.739Z,0.50
2023-05-05T10:28:53.388Z,0.80
2023-05-05T10:31:27.506Z,0.80
2023-05-05T10:34:03.371Z,0.60
2023-05-05T10:36:32.119Z,0.70
2023-05-05T10:39:00.764Z,1.00
2023-05-05T10:41:31.012Z,0.57
2023-05-05T10:44:01.394Z,0.52
2023-05-05T10:46:31.090Z,0.88
2023-05-05T10:49:35.958Z,0.82
2023-05-05T10:52:04.929Z,0.60
2023-05-05T10:54:46.545Z,0.85
2023-05-05T10:57:16.924Z,0.70
2023-05-05T10:59:44.812Z,0.85
2023-05-05T11:02:18.994Z,0.43
2023-05-05T11:05:03.747Z,0.60
2023-05-05T11:07:32.592Z,0.40
2023-05-05T11:10:05.857Z,0.80
2023-05-05T11:13:02.077Z,0.50
2023-05-05T11:15:30.506Z,0.40
2023-05-05T11:18:05.859Z,0.60
2023-05-05T11:20:40.927Z,0.50
2023-05-05T11:23:08.841Z,0.60
2023-05-05T11:25:37.411Z,0.70
2023-05-05T11:28:13.790Z,0.55
2023-05-05T11:30:57.819Z,0.70
2023-05-05T11:33:36.156Z,0.57
2023-05-05T11:36:06.714Z,0.80
2023-05-05T11:38:56.307Z,1.00
2023-05-05T11:41:33.433Z,0.85
2023-05-05T11:44:21.170Z,0.50
2023-05-05T11:46:51.897Z,0.60
2023-05-05T11:49:33.614Z,1.50
2023-05-05T11:52:14.688Z,0.65
2023-05-05T11:54:48.152Z,0.60
2023-05-05T11:57:19.531Z,1.00
2023-05-05T12:00:00.829Z,0.80
2023-05-05T12:02:30.170Z,1.25
2023-05-05T12:04:59.691Z,0.80
2023-05-05T12:07:30.568Z,0.60
2023-05-05T12:09:58.484Z,0.73
2023-05-05T12:12:37.749Z,0.77
2023-05-05T12:15:07.937Z,0.68
2023-05-05T12:17:46.310Z,0.60
2023-05-05T12:20:14.283Z,0.73
2023-05-05T12:22:42.135Z,0.60
2023-05-05T12:25:10.583Z,0.73
2023-05-05T12:27:38.877Z,0.57
2023-05-05T12:30:16.220Z,0.80
2023-05-05T12:32:45.369Z,0.70
2023-05-05T12:35:14.042Z,0.73
2023-05-05T12:37:43.167Z,0.55
2023-05-05T12:40:46.092Z,0.50
2023-05-05T12:43:43.926Z,0.65
2023-05-05T12:46:12.627Z,0.75
2023-05-05T12:48:48.212Z,0.70
2023-05-05T12:51:17.787Z,0.90
2023-05-05T12:54:01.096Z,0.43
2023-05-05T12:56:30.031Z,0.70
2023-05-05T12:58:57.851Z,0.90
2023-05-05T13:01:25.778Z,0.60
2023-05-05T13:04:06.348Z,0.70
2023-05-05T13:06:34.416Z,0.60
2023-05-05T13:09:02.393Z,0.70
2023-05-05T13:11:30.270Z,0.60
2023-05-05T13:13:58.008Z,0.63
2023-05-05T13:16:25.848Z,0.63
2023-05-05T13:18:53.733Z,0.80
2023-05-05T13:21:21.442Z,0.77
2023-05-05T13:23:49.484Z,0.80
2023-05-05T13:26:21.379Z,0.40
2023-05-05T13:28:49.077Z,0.50
2023-05-05T13:31:16.843Z,1.00
2023-05-05T13:33:44.864Z,0.77
2023-05-05T13:36:13.064Z,0.80
2023-05-05T13:38:40.890Z,0.60
2023-05-05T13:41:08.598Z,0.70
2023-05-05T13:43:36.394Z,0.60
2023-05-05T13:46:18.826Z,0.70
2023-05-05T13:48:47.705Z,0.70
2023-05-05T13:51:16.447Z,0.88
2023-05-05T13:53:45.136Z,0.77
2023-05-05T13:56:13.317Z,0.70
2023-05-05T13:58:42.545Z,0.80
2023-05-05T14:01:11.178Z,0.40
2023-05-05T14:03:39.700Z,0.90
2023-05-05T14:06:09.164Z,0.50
2023-05-05T14:08:37.461Z,0.75
2023-05-05T14:11:05.502Z,0.60
2023-05-05T14:13:33.296Z,0.40
2023-05-05T14:16:01.125Z,0.77
2023-05-05T14:18:29.793Z,0.90
2023-05-05T14:20:57.636Z,0.77
2023-05-05T14:23:25.358Z,0.73
2023-05-05T14:25:53.141Z,0.75
2023-05-05T14:28:20.860Z,0.55
2023-05-05T14:30:48.628Z,0.30
2023-05-05T14:33:17.127Z,0.68
2023-05-05T14:35:44.913Z,0.68
2023-05-05T14:38:12.601Z,0.80
2023-05-05T14:40:40.805Z,0.77
2023-05-05T14:43:08.549Z,0.70
2023-05-05T14:45:36.363Z,0.65
2023-05-05T14:48:04.406Z,0.50
2023-05-05T14:50:32.068Z,0.80
2023-05-05T14:52:59.845Z,0.57
2023-05-05T14:55:30.683Z,0.70
2023-05-05T14:57:58.329Z,0.85
2023-05-05T15:00:26.929Z,0.65
2023-05-05T15:02:54.921Z,0.70
2023-05-05T15:05:22.622Z,0.52
2023-05-05T15:07:50.825Z,0.75
2023-05-05T15:10:21.807Z,0.50
2023-05-05T15:12:51.068Z,0.50
2023-05-05T15:15:19.257Z,0.90
2023-05-05T15:17:47.005Z,0.80
2023-05-05T15:20:14.772Z,0.80
2023-05-05T15:22:42.765Z,0.68
2023-05-05T15:25:15.246Z,0.73
2023-05-05T15:27:45.442Z,0.98
2023-05-05T15:30:14.266Z,0.93
2023-05-05T15:32:42.600Z,0.77
2023-05-05T15:35:10.732Z,0.90
2023-05-05T15:37:38.502Z,0.90
2023-05-05T15:40:09.456Z,0.90
2023-05-05T15:42:38.420Z,0.70
2023-05-05T15:45:08.310Z,0.88
2023-05-05T15:47:39.504Z,0.65
2023-05-05T15:50:08.344Z,0.95
2023-05-05T15:52:36.201Z,1.10
2023-05-05T15:55:04.615Z,1.17
2023-05-05T15:57:34.177Z,0.75
2023-05-05T16:00:06.374Z,1.10
2023-05-05T16:02:35.422Z,0.75
2023-05-05T16:05:03.231Z,1.23
2023-05-05T16:07:31.011Z,1.15
2023-05-05T16:09:59.022Z,0.90
2023-05-05T16:12:26.781Z,0.90
2023-05-05T16:14:54.549Z,0.90
2023-05-05T16:17:22.822Z,0.70
2023-05-05T16:19:50.916Z,0.93
2023-05-05T16:22:18.776Z,0.80
2023-05-05T16:24:47.018Z,0.70
2023-05-05T16:27:15.110Z,0.80
2023-05-05T16:29:43.062Z,1.15
2023-05-05T16:32:11.080Z,1.20
2023-05-05T16:34:38.867Z,2.10
2023-05-05T16:37:06.683Z,1.55
2023-05-05T16:39:35.536Z,1.40
2023-05-05T16:42:03.748Z,1.40
2023-05-05T16:44:31.537Z,1.02
2023-05-05T16:46:59.228Z,1.48
2023-05-05T16:49:26.942Z,0.98
2023-05-05T16:51:54.622Z,0.80
2023-05-05T16:54:22.307Z,1.27
2023-05-05T16:56:50.109Z,1.45
2023-05-05T16:59:19.244Z,1.65
2023-05-05T17:01:47.091Z,1.58
2023-05-05T17:04:15.773Z,2.05
2023-05-05T17:06:46.982Z,0.82
2023-05-05T17:09:14.671Z,1.58
2023-05-05T17:11:42.436Z,1.10
2023-05-05T17:14:10.121Z,1.15
2023-05-05T17:16:38.521Z,1.30
2023-05-05T17:19:06.682Z,1.85
2023-05-05T17:21:34.547Z,1.70
2023-05-05T17:24:02.298Z,1.50
2023-05-05T17:26:30.790Z,1.30
2023-05-05T17:28:59.101Z,1.80
2023-05-05T17:31:26.939Z,1.75
2023-05-05T17:33:54.622Z,2.40
2023-05-05T17:36:22.826Z,1.83
2023-05-05T17:38:50.541Z,1.70
2023-05-05T17:41:19.682Z,2.03
2023-05-05T17:43:48.762Z,2.38
2023-05-05T17:46:28.815Z,1.95
2023-05-05T17:49:01.976Z,1.30
2023-05-05T17:51:30.196Z,1.45
2023-05-05T17:53:58.192Z,1.63
2023-05-05T17:56:25.940Z,1.90
2023-05-05T17:58:54.133Z,1.77
2023-05-05T18:01:24.524Z,1.80
2023-05-05T18:03:53.113Z,1.63
2023-05-05T18:06:21.057Z,1.45
2023-05-05T18:08:49.472Z,1.48
2023-05-05T18:11:19.357Z,1.35
2023-05-05T18:13:47.293Z,1.50
2023-05-05T18:16:15.372Z,1.42
2023-05-05T18:18:43.545Z,1.08
2023-05-05T18:21:12.381Z,1.27
2023-05-05T18:23:40.512Z,1.33
2023-05-05T18:26:09.521Z,1.42
2023-05-05T18:28:37.777Z,1.25
2023-05-05T18:31:05.546Z,1.23
2023-05-05T18:33:33.335Z,1.30
2023-05-05T18:36:03.322Z,1.40
2023-05-05T18:38:33.081Z,1.38
2023-05-05T18:41:00.752Z,1.52
2023-05-05T18:43:28.720Z,1.40
2023-05-05T18:45:56.687Z,1.60
2023-05-05T18:48:24.569Z,1.52
2023-05-05T18:50:52.729Z,1.40
2023-05-05T18:53:20.835Z,1.38
2023-05-05T18:55:49.408Z,1.65
2023-05-05T18:58:17.634Z,1.65
2023-05-05T19:00:45.309Z,1.50
2023-05-05T19:03:13.606Z,2.55
2023-05-05T19:05:42.124Z,1.30
2023-05-05T19:08:10.119Z,1.42
2023-05-05T19:10:38.943Z,1.42
2023-05-05T19:13:06.806Z,1.30
2023-05-05T19:15:34.791Z,1.55
2023-05-05T19:18:02.803Z,1.50
2023-05-05T19:20:31.828Z,1.30
2023-05-05T19:23:03.826Z,1.48
2023-05-05T19:25:31.832Z,1.60
2023-05-05T19:27:59.653Z,1.40
2023-05-05T19:30:27.529Z,1.73
2023-05-05T19:32:55.338Z,1.92
2023-05-05T19:35:23.173Z,1.30
2023-05-05T19:37:50.856Z,1.50
2023-05-05T19:40:18.615Z,1.92
2023-05-05T19:42:46.305Z,1.83
2023-05-05T19:45:15.632Z,1.50
2023-05-05T19:47:43.325Z,1.27
2023-05-05T19:50:11.696Z,1.63
2023-05-05T19:52:41.423Z,1.48
2023-05-05T19:55:10.574Z,1.83
2023-05-05T19:57:39.303Z,1.70
2023-05-05T20:00:08.453Z,1.58
2023-05-05T20:02:37.276Z,1.85
2023-05-05T20:05:05.483Z,1.50
2023-05-05T20:07:33.216Z,1.83
2023-05-05T20:10:01.017Z,1.67
2023-05-05T20:12:28.785Z,1.65
2023-05-05T20:14:56.411Z,1.60
2023-05-05T20:17:25.898Z,1.65
2023-05-05T20:19:54.381Z,1.35
2023-05-05T20:22:22.236Z,1.20
2023-05-05T20:24:50.306Z,1.42
2023-05-05T20:27:18.130Z,1.50
2023-05-05T20:29:46.379Z,1.42
2023-05-05T20:32:14.055Z,1.42
2023-05-05T20:34:41.850Z,2.00
2023-05-05T20:37:12.439Z,1.77
2023-05-05T20:39:44.417Z,1.70
2023-05-05T20:42:13.149Z,1.88
2023-05-05T20:44:41.297Z,1.83
2023-05-05T20:47:09.274Z,1.77
2023-05-05T20:49:37.243Z,1.67
2023-05-05T20:52:05.118Z,1.92
2023-05-05T20:54:36.489Z,2.22
2023-05-05T20:57:04.478Z,2.05
2023-05-05T20:59:32.322Z,1.70
2023-05-05T21:02:01.529Z,2.20
2023-05-05T21:04:29.398Z,2.30
2023-05-05T21:06:59.769Z,1.50
2023-05-05T21:09:27.683Z,1.90
2023-05-05T21:11:55.409Z,1.85
2023-05-05T21:14:23.715Z,2.00
2023-05-05T21:16:51.512Z,1.90
2023-05-05T21:19:19.231Z,1.95
2023-05-05T21:21:47.414Z,1.92
2023-05-05T21:24:15.166Z,2.17
2023-05-05T21:26:44.343Z,1.73
2023-05-05T21:29:12.303Z,1.92
2023-05-05T21:31:40.049Z,1.85
2023-05-05T21:34:07.818Z,1.90
2023-05-05T21:36:36.409Z,2.05
2023-05-05T21:39:04.234Z,1.95
2023-05-05T21:41:31.920Z,1.88
2023-05-05T21:43:59.686Z,2.15
2023-05-05T21:46:27.476Z,1.70
2023-05-05T21:48:55.183Z,2.00
2023-05-05T21:51:23.584Z,2.00
2023-05-05T21:53:51.231Z,2.33
2023-05-05T21:56:18.936Z,1.98
2023-05-05T21:58:46.808Z,2.15
2023-05-05T22:01:14.425Z,2.00
2023-05-05T22:03:43.767Z,1.73
2023-05-05T22:06:20.616Z,1.80
2023-05-05T22:08:49.081Z,1.77
2023-05-05T22:11:18.096Z,2.15
2023-05-05T22:13:47.951Z,2.35
2023-05-05T22:16:17.725Z,1.70
2023-05-05T22:18:46.191Z,1.92
2023-05-05T22:21:16.368Z,1.88
2023-05-05T22:23:44.204Z,1.92
2023-05-05T22:26:12.483Z,2.20
2023-05-05T22:28:41.651Z,1.98
2023-05-05T22:31:09.435Z,2.45
2023-05-05T22:33:37.484Z,2.90
2023-05-05T22:36:05.587Z,2.53
2023-05-05T22:38:33.334Z,2.33
2023-05-05T22:41:01.109Z,2.00
2023-05-05T22:43:28.898Z,2.10
2023-05-05T22:45:56.591Z,2.70
2023-05-05T22:48:24.385Z,2.17
2023-05-05T22:50:52.064Z,2.05
2023-05-05T22:53:19.844Z,1.95
2023-05-05T22:55:47.578Z,2.17
2023-05-05T22:58:15.359Z,2.05
2023-05-05T23:00:43.203Z,2.67
2023-05-05T23:03:11.795Z,1.80
2023-05-05T23:05:39.553Z,2.28
2023-05-05T23:08:07.461Z,2.80
2023-05-05T23:10:35.164Z,1.85
2023-05-05T23:13:03.461Z,1.80
2023-05-05T23:15:31.242Z,1.95
2023-05-05T23:17:58.992Z,2.40
2023-05-05T23:20:26.866Z,1.88
2023-05-05T23:22:55.577Z,2.33
2023-05-05T23:25:23.276Z,1.98
2023-05-05T23:27:51.028Z,1.77
2023-05-05T23:30:19.097Z,2.25
2023-05-05T23:32:46.862Z,2.22
2023-05-05T23:35:14.631Z,2.22
2023-05-05T23:37:42.427Z,2.17
2023-05-05T23:40:10.489Z,2.38
2023-05-05T23:42:38.214Z,2.17
2023-05-05T23:45:06.445Z,2.40
2023-05-05T23:47:34.184Z,2.15
2023-05-05T23:50:02.010Z,2.20
2023-05-05T23:52:29.744Z,2.05
2023-05-05T23:54:57.414Z,1.75
2023-05-05T23:57:25.077Z,1.60
2023-05-05T23:59:52.735Z,1.67
